Bamburgh, United Kingdom
Current Conditions -  °F | °C
As of 1:50 AM on Friday 21 Nov 2014 (Local Time) from EGQM Reporting Station
Haze Haze  
Wind Chill: 39°   Ceiling: Unl
Heat Index: 39°   Visibility: 2.6mi
Dew Point: 39°   Wind: 2mph
Humidity: 100%   Direction: 290°WNW
Pressure: 30.24"   Gusts: NA
Location:  55.61°N, 1.72°W
Report Text: EGQM 210150Z AUTO 29002KT 4200 BR NCD 04/04 Q1024
Loading
Personal Weather Stations






























Interactive Weather Map New forecast layout! Learn more

10-Day Weather Forecast

Advertisements
Track Severe Weather on mobile